Time;durP1;ratioP1;P1;durP2;ratioP2;P2;SDS_P1;SDS_P2;PMS_P1;PMS_P2;Temp;Humidity;BMP_temperature;BMP_pressure;BME280_temperature;BME280_humidity;BME280_pressure;Samples;Min_cycle;Max_cycle;Signal;HPM_P1;HPM_P2
2021/07/11 00:02:20;;;;;;;4.20;3.80;;;17.50;93.00;;;;;;5071391;28;20016;-67
2021/07/11 00:04:45;;;;;;;5.13;3.70;;;17.50;93.00;;;;;;5071859;28;20031;-68
2021/07/11 00:07:14;;;;;;;3.85;3.50;;;17.40;93.00;;;;;;5072852;28;20350;-68
2021/07/11 00:09:40;;;;;;;4.72;3.40;;;17.30;93.00;;;;;;5058054;28;20028;-68
2021/07/11 00:12:06;;;;;;;5.93;3.75;;;17.30;93.10;;;;;;5059630;28;20028;-67
2021/07/11 00:14:32;;;;;;;3.88;3.47;;;17.20;93.10;;;;;;5072357;28;20376;-68
2021/07/11 00:16:58;;;;;;;3.92;3.63;;;17.10;93.10;;;;;;5072462;28;20506;-68
2021/07/11 00:19:23;;;;;;;4.60;3.95;;;17.00;93.20;;;;;;5058593;28;20024;-67
2021/07/11 00:21:49;;;;;;;3.65;3.35;;;17.10;93.30;;;;;;5072452;28;20171;-67
2021/07/11 00:24:14;;;;;;;3.80;3.45;;;17.00;93.30;;;;;;5070979;28;20052;-67
2021/07/11 00:26:40;;;;;;;4.05;3.65;;;16.90;93.30;;;;;;5071253;28;20078;-67
2021/07/11 00:29:06;;;;;;;4.18;3.83;;;16.90;93.30;;;;;;5071918;28;20024;-67
2021/07/11 00:31:31;;;;;;;7.10;3.85;;;16.90;93.40;;;;;;5060999;28;20770;-67
2021/07/11 00:33:57;;;;;;;3.92;3.47;;;16.90;93.50;;;;;;5066459;28;20035;-68
2021/07/11 00:36:22;;;;;;;4.75;3.63;;;16.80;93.50;;;;;;5066396;28;20448;-68
2021/07/11 00:38:48;;;;;;;6.30;3.60;;;16.80;93.60;;;;;;5071852;28;20066;-67
2021/07/11 00:41:13;;;;;;;5.10;3.80;;;16.80;93.70;;;;;;5063373;28;20079;-68
2021/07/11 00:43:39;;;;;;;4.80;3.63;;;16.80;93.70;;;;;;5072891;28;20040;-67
2021/07/11 00:46:05;;;;;;;5.20;3.55;;;16.80;93.70;;;;;;5069718;28;20103;-67
2021/07/11 00:48:30;;;;;;;4.20;3.80;;;16.80;94.00;;;;;;5068472;28;20108;-68
2021/07/11 00:50:57;;;;;;;3.47;3.17;;;16.80;93.90;;;;;;5071904;28;20025;-68
2021/07/11 00:53:23;;;;;;;3.50;3.20;;;16.80;93.90;;;;;;5072404;28;20032;-68
2021/07/11 00:55:49;;;;;;;4.10;3.08;;;16.80;93.80;;;;;;5071021;28;20028;-68
2021/07/11 00:58:14;;;;;;;3.35;3.05;;;16.80;93.80;;;;;;5064572;28;20067;-68
2021/07/11 01:00:48;;;;;;;3.67;3.30;;;16.80;93.90;;;;;;5071685;28;20054;-68
2021/07/11 01:03:35;;;;;;;5.50;3.10;;;16.80;94.00;;;;;;5071975;28;20107;-67
2021/07/11 01:06:03;;;;;;;4.82;3.13;;;16.80;94.10;;;;;;5067656;28;20546;-68
2021/07/11 01:08:58;;;;;;;3.10;2.83;;;16.80;94.00;;;;;;5072404;28;20031;-67
2021/07/11 01:11:27;;;;;;;3.30;3.00;;;16.80;94.10;;;;;;5058765;28;20017;-67
2021/07/11 01:13:55;;;;;;;4.30;2.70;;;16.80;93.90;;;;;;5071853;28;20086;-67
2021/07/11 01:16:31;;;;;;;5.72;2.80;;;16.70;94.00;;;;;;5070786;28;20358;-67
2021/07/11 01:19:05;;;;;;;3.00;2.80;;;16.70;94.10;;;;;;5071593;28;20619;-67
2021/07/11 01:21:37;;;;;;;3.38;2.63;;;16.70;94.00;;;;;;5071703;28;20029;-67
2021/07/11 01:24:13;;;;;;;3.13;2.50;;;16.80;94.10;;;;;;5071997;28;20073;-67
2021/07/11 01:26:39;;;;;;;3.47;2.80;;;16.80;94.20;;;;;;5069466;28;20535;-68
2021/07/11 01:29:05;;;;;;;4.25;2.38;;;16.80;94.10;;;;;;5071900;28;20099;-68
2021/07/11 01:31:33;;;;;;;2.63;2.42;;;16.70;94.10;;;;;;5071498;28;20020;-67
2021/07/11 01:34:00;;;;;;;3.22;2.55;;;16.70;94.00;;;;;;5070978;28;20157;-67
2021/07/11 01:36:26;;;;;;;4.43;2.60;;;16.70;94.10;;;;;;5070544;28;20020;-68
2021/07/11 01:38:53;;;;;;;3.92;2.60;;;16.70;94.10;;;;;;5070806;28;20044;-67
2021/07/11 01:41:21;;;;;;;4.47;2.72;;;16.70;94.10;;;;;;5053959;28;20452;-67
2021/07/11 01:43:52;;;;;;;2.78;2.45;;;16.70;94.20;;;;;;5067634;28;20031;-67
2021/07/11 01:46:18;;;;;;;7.80;2.80;;;16.70;94.30;;;;;;5069774;28;20070;-67
2021/07/11 01:48:44;;;;;;;3.10;2.58;;;16.70;94.20;;;;;;5071640;28;20503;-67
2021/07/11 01:51:11;;;;;;;3.00;2.70;;;16.70;94.20;;;;;;5070366;28;20024;-67
2021/07/11 01:53:39;;;;;;;3.03;2.72;;;16.70;94.30;;;;;;5071829;28;20463;-67
2021/07/11 01:56:07;;;;;;;3.22;2.92;;;16.70;94.40;;;;;;5069614;28;20033;-69
2021/07/11 01:58:33;;;;;;;3.65;2.75;;;16.80;94.40;;;;;;5066438;28;20033;-67
2021/07/11 02:01:01;;;;;;;2.97;2.67;;;16.80;94.30;;;;;;5071079;28;20059;-68
2021/07/11 02:03:27;;;;;;;3.17;2.72;;;16.70;94.30;;;;;;5071203;28;20107;-68
2021/07/11 02:05:53;;;;;;;3.78;2.92;;;16.70;94.30;;;;;;5069697;28;20145;-67
2021/07/11 02:08:20;;;;;;;3.65;2.80;;;16.70;94.40;;;;;;5070914;28;20021;-67
2021/07/11 02:10:48;;;;;;;3.63;2.88;;;16.70;94.40;;;;;;5069832;28;20154;-67
2021/07/11 02:13:29;;;;;;;3.10;2.80;;;16.70;94.60;;;;;;5070515;28;20051;-67
2021/07/11 02:16:02;;;;;;;4.05;3.00;;;16.80;94.70;;;;;;5068681;28;20044;-71
2021/07/11 02:18:29;;;;;;;3.13;2.88;;;16.80;94.50;;;;;;5070194;28;20024;-67
2021/07/11 02:20:55;;;;;;;6.78;3.67;;;16.80;94.50;;;;;;5071091;28;20025;-67
2021/07/11 02:23:23;;;;;;;3.45;3.15;;;16.80;94.60;;;;;;5070266;28;20388;-69
2021/07/11 02:25:50;;;;;;;4.78;3.28;;;16.80;94.60;;;;;;5069583;28;20033;-67
2021/07/11 02:28:17;;;;;;;3.80;3.28;;;16.90;94.60;;;;;;5070480;28;20476;-68
2021/07/11 02:30:57;;;;;;;3.50;2.75;;;16.80;94.50;;;;;;5070468;28;20032;-67
2021/07/11 02:33:32;;;;;;;3.28;2.97;;;16.80;94.40;;;;;;5052434;28;20028;-66
2021/07/11 02:36:01;;;;;;;4.35;2.83;;;16.70;94.40;;;;;;5068208;28;20377;-68
2021/07/11 02:38:55;;;;;;;4.70;3.17;;;16.70;94.70;;;;;;5064524;28;20085;-68
2021/07/11 02:41:21;;;;;;;2.65;2.45;;;16.70;94.60;;;;;;5056977;28;20461;-68
2021/07/11 02:43:50;;;;;;;4.85;2.38;;;16.60;94.40;;;;;;5068479;28;20064;-68
2021/07/11 02:46:24;;;;;;;2.72;2.38;;;16.50;94.40;;;;;;5067355;28;20455;-68
2021/07/11 02:48:51;;;;;;;3.25;2.40;;;16.40;94.40;;;;;;5070484;28;20100;-68
2021/07/11 02:51:21;;;;;;;4.00;2.60;;;16.30;94.40;;;;;;5070062;28;20036;-68
2021/07/11 02:53:48;;;;;;;4.30;2.72;;;16.30;94.40;;;;;;5068869;28;20024;-67
2021/07/11 02:56:17;;;;;;;2.75;2.40;;;16.20;94.50;;;;;;5069173;28;20072;-68
2021/07/11 02:58:43;;;;;;;2.72;2.53;;;16.20;94.60;;;;;;5068210;28;20037;-68
2021/07/11 03:01:10;;;;;;;2.75;2.30;;;16.10;94.60;;;;;;5069368;28;20032;-68
2021/07/11 03:03:36;;;;;;;2.72;2.53;;;16.10;94.70;;;;;;5050817;28;20111;-68
2021/07/11 03:06:03;;;;;;;2.85;2.58;;;16.10;94.60;;;;;;5068940;28;20107;-69
2021/07/11 03:08:28;;;;;;;3.65;2.88;;;16.00;94.70;;;;;;5068491;28;20017;-68
2021/07/11 03:10:55;;;;;;;3.28;2.50;;;16.00;94.70;;;;;;5065676;28;20028;-68
2021/07/11 03:13:22;;;;;;;2.78;2.58;;;16.00;94.80;;;;;;5067963;28;20024;-67
2021/07/11 03:15:48;;;;;;;2.70;2.50;;;15.90;94.80;;;;;;5069279;28;20024;-67
2021/07/11 03:18:14;;;;;;;6.45;2.95;;;15.90;94.80;;;;;;5069844;28;20024;-67
2021/07/11 03:20:42;;;;;;;2.88;2.67;;;15.90;94.90;;;;;;5069514;28;20077;-68
2021/07/11 03:23:08;;;;;;;4.28;2.95;;;15.90;94.90;;;;;;5069962;28;20122;-68
2021/07/11 03:25:35;;;;;;;2.78;2.50;;;15.90;94.90;;;;;;5067671;28;20369;-68
2021/07/11 03:28:05;;;;;;;3.60;2.35;;;15.90;95.00;;;;;;5069286;28;20025;-68
2021/07/11 03:30:36;;;;;;;3.28;2.75;;;15.90;95.00;;;;;;5069037;28;20338;-68
2021/07/11 03:33:04;;;;;;;3.15;2.67;;;15.90;95.00;;;;;;5069771;28;20028;-68
2021/07/11 03:35:57;;;;;;;3.15;2.85;;;15.90;95.00;;;;;;5068483;28;20024;-69
2021/07/11 03:38:30;;;;;;;2.60;2.40;;;15.80;95.20;;;;;;5059363;28;20040;-69
2021/07/11 03:40:56;;;;;;;4.57;2.72;;;15.90;95.20;;;;;;5059177;28;20031;-69
2021/07/11 03:43:24;;;;;;;3.78;3.38;;;15.90;95.20;;;;;;5069617;28;20064;-67
2021/07/11 03:45:53;;;;;;;3.35;2.83;;;15.90;95.20;;;;;;5068708;28;20591;-68
2021/07/11 03:48:41;;;;;;;3.45;2.47;;;16.00;95.20;;;;;;5069322;28;20025;-68
2021/07/11 03:51:08;;;;;;;3.28;2.45;;;16.00;95.30;;;;;;5052218;28;20033;-68
2021/07/11 03:53:36;;;;;;;3.80;2.70;;;16.00;95.10;;;;;;5069464;28;20028;-68
2021/07/11 03:56:04;;;;;;;3.33;2.90;;;15.90;95.10;;;;;;5068308;28;20074;-68
2021/07/11 03:58:34;;;;;;;4.05;2.78;;;15.90;95.20;;;;;;5060456;28;20044;-68
2021/07/11 04:01:00;;;;;;;3.15;2.63;;;16.00;95.30;;;;;;5069622;28;20025;-68
2021/07/11 04:03:27;;;;;;;5.72;2.95;;;16.00;95.30;;;;;;5068764;28;20032;-68
2021/07/11 04:05:54;;;;;;;3.03;2.83;;;16.00;95.30;;;;;;5068631;28;20116;-68
2021/07/11 04:08:21;;;;;;;3.20;2.75;;;16.00;95.30;;;;;;5068736;28;20078;-68
2021/07/11 04:10:48;;;;;;;2.95;2.65;;;16.10;95.30;;;;;;5061756;28;20025;-68
2021/07/11 04:13:15;;;;;;;3.38;2.63;;;16.00;95.20;;;;;;5067230;28;20035;-68
2021/07/11 04:15:43;;;;;;;3.30;2.92;;;16.00;95.30;;;;;;5066581;28;20029;-68
2021/07/11 04:18:13;;;;;;;4.60;2.67;;;16.00;95.30;;;;;;5068961;28;20036;-68
2021/07/11 04:20:41;;;;;;;3.25;2.53;;;16.00;95.30;;;;;;5069565;28;20025;-68
2021/07/11 04:23:07;;;;;;;4.88;2.80;;;16.00;95.50;;;;;;5069442;28;20029;-68
2021/07/11 04:25:38;;;;;;;6.32;3.38;;;16.00;95.30;;;;;;5067054;28;20040;-68
2021/07/11 04:28:05;;;;;;;5.75;2.90;;;16.00;95.30;;;;;;5069805;28;20020;-69
2021/07/11 04:30:30;;;;;;;3.83;2.90;;;16.00;95.30;;;;;;5069109;28;20031;-69
2021/07/11 04:32:56;;;;;;;4.28;3.10;;;16.00;95.20;;;;;;5067729;28;20415;-68
2021/07/11 04:35:22;;;;;;;5.28;3.30;;;16.00;95.30;;;;;;5066689;28;20040;-68
2021/07/11 04:37:47;;;;;;;4.43;3.25;;;16.00;95.30;;;;;;5069227;28;20031;-68
2021/07/11 04:40:14;;;;;;;3.40;3.10;;;16.00;95.40;;;;;;5079277;22;20040;-69
2021/07/11 04:42:39;;;;;;;3.53;3.22;;;16.00;95.40;;;;;;5068309;28;20126;-69
2021/07/11 04:45:06;;;;;;;4.38;3.15;;;16.10;95.30;;;;;;5068421;28;20490;-69
2021/07/11 04:47:32;;;;;;;3.80;3.13;;;16.00;95.30;;;;;;5071483;28;20028;-69
2021/07/11 04:49:57;;;;;;;5.25;3.08;;;16.00;95.30;;;;;;5090478;28;20031;-69
2021/07/11 04:52:24;;;;;;;4.13;2.97;;;16.00;95.40;;;;;;5092809;28;20028;-69
2021/07/11 04:54:49;;;;;;;5.13;3.05;;;16.10;95.40;;;;;;5061430;28;20093;-69
2021/07/11 04:57:15;;;;;;;3.22;2.92;;;16.00;95.40;;;;;;5082075;28;20467;-69
2021/07/11 04:59:41;;;;;;;4.38;3.10;;;16.00;95.30;;;;;;5086398;28;20054;-69
2021/07/11 05:02:07;;;;;;;3.63;2.95;;;16.00;95.40;;;;;;5086556;28;20036;-69
2021/07/11 05:04:32;;;;;;;4.50;2.75;;;15.90;95.30;;;;;;5097339;28;20065;-69
2021/07/11 05:06:58;;;;;;;2.92;2.63;;;16.00;95.40;;;;;;5086927;28;20028;-69
2021/07/11 05:09:24;;;;;;;10.18;2.97;;;15.90;95.40;;;;;;5080177;28;20020;-69
2021/07/11 05:11:49;;;;;;;3.92;3.15;;;15.90;95.40;;;;;;5088978;28;20036;-69
2021/07/11 05:14:15;;;;;;;5.75;3.20;;;16.00;95.40;;;;;;5090446;28;20510;-69
2021/07/11 05:16:41;;;;;;;3.13;2.83;;;16.00;95.40;;;;;;5094244;28;20028;-69
2021/07/11 05:19:06;;;;;;;4.50;3.22;;;15.90;95.30;;;;;;5092082;28;20479;-69
2021/07/11 05:21:33;;;;;;;3.88;2.67;;;15.90;95.30;;;;;;5093022;28;20024;-69
2021/07/11 05:23:59;;;;;;;4.97;3.40;;;15.90;95.30;;;;;;5091403;28;20035;-69
2021/07/11 05:26:25;;;;;;;6.32;2.97;;;15.90;95.40;;;;;;5077732;28;20021;-69
2021/07/11 05:28:51;;;;;;;7.50;3.40;;;15.90;95.40;;;;;;5075259;28;20020;-69
2021/07/11 05:31:17;;;;;;;4.95;3.33;;;15.80;95.50;;;;;;5081854;28;20428;-69
2021/07/11 05:33:43;;;;;;;5.60;3.50;;;15.80;95.40;;;;;;5089652;28;20027;-69
2021/07/11 05:36:09;;;;;;;5.32;3.70;;;15.80;95.50;;;;;;5080722;28;20021;-69
2021/07/11 05:38:36;;;;;;;5.60;3.78;;;15.80;95.50;;;;;;5085425;28;20020;-69
2021/07/11 05:41:02;;;;;;;6.35;5.00;;;15.90;95.60;;;;;;5086913;28;20043;-69
2021/07/11 05:43:28;;;;;;;4.93;4.07;;;15.80;95.60;;;;;;5085676;28;20021;-69
2021/07/11 05:45:53;;;;;;;6.97;3.80;;;15.80;95.60;;;;;;5079027;28;20034;-69
2021/07/11 05:48:19;;;;;;;6.22;4.28;;;15.90;95.60;;;;;;5084883;28;20036;-69
2021/07/11 05:50:45;;;;;;;5.00;3.75;;;15.90;95.60;;;;;;5081011;28;20021;-69
2021/07/11 05:53:10;;;;;;;6.00;4.32;;;15.90;95.70;;;;;;5084449;28;20055;-69
2021/07/11 05:55:40;;;;;;;4.20;3.90;;;15.90;95.70;;;;;;5080971;28;20050;-69
2021/07/11 05:58:06;;;;;;;5.68;4.18;;;16.00;95.80;;;;;;5079804;28;20032;-69
2021/07/11 06:00:32;;;;;;;5.13;4.07;;;16.00;95.80;;;;;;5075904;28;20047;-69
2021/07/11 06:02:57;;;;;;;5.47;3.67;;;16.00;95.70;;;;;;5084723;28;20028;-69
2021/07/11 06:05:23;;;;;;;4.07;3.67;;;16.00;95.70;;;;;;5077680;28;20031;-69
2021/07/11 06:07:49;;;;;;;6.53;3.75;;;16.00;95.70;;;;;;5073126;28;20047;-69
2021/07/11 06:10:15;;;;;;;5.05;3.75;;;16.00;95.70;;;;;;5076571;28;20055;-69
2021/07/11 06:12:40;;;;;;;8.05;3.40;;;16.10;95.70;;;;;;5094574;28;20028;-69
2021/07/11 06:15:06;;;;;;;7.03;3.97;;;16.10;95.70;;;;;;5085323;28;20119;-69
2021/07/11 06:17:33;;;;;;;6.15;4.00;;;16.10;95.70;;;;;;5076515;28;20125;-69
2021/07/11 06:20:05;;;;;;;4.57;3.40;;;16.20;95.70;;;;;;5081662;28;20031;-69
2021/07/11 06:22:30;;;;;;;5.22;3.75;;;16.10;95.70;;;;;;5069857;28;20399;-69
2021/07/11 06:24:56;;;;;;;4.75;3.47;;;16.20;95.70;;;;;;5086832;28;20036;-69
2021/07/11 06:27:22;;;;;;;3.80;3.40;;;16.10;95.60;;;;;;5085735;28;20029;-69
2021/07/11 06:29:48;;;;;;;3.42;2.97;;;16.20;95.60;;;;;;5072844;28;20024;-69
2021/07/11 06:32:14;;;;;;;3.92;3.60;;;16.20;95.60;;;;;;5071062;28;20354;-69
2021/07/11 06:34:39;;;;;;;6.80;3.60;;;16.20;95.60;;;;;;5071629;28;20531;-69
2021/07/11 06:37:05;;;;;;;5.82;3.88;;;16.20;95.50;;;;;;5071326;28;20266;-69
2021/07/11 06:39:30;;;;;;;6.93;3.22;;;16.20;95.50;;;;;;5075213;28;20028;-69
2021/07/11 06:41:56;;;;;;;3.80;3.15;;;16.20;95.50;;;;;;5081141;28;20111;-70
2021/07/11 06:44:22;;;;;;;5.70;3.38;;;16.20;95.50;;;;;;5084012;28;20024;-69
2021/07/11 06:46:47;;;;;;;5.72;3.25;;;16.20;95.50;;;;;;5084794;28;20428;-69
2021/07/11 06:49:13;;;;;;;4.90;3.35;;;16.30;95.60;;;;;;5082674;28;20032;-69
2021/07/11 06:51:38;;;;;;;6.05;3.92;;;16.30;95.60;;;;;;5071396;28;20035;-69
2021/07/11 06:54:04;;;;;;;4.70;3.20;;;16.30;95.60;;;;;;5090308;28;20034;-69
2021/07/11 06:56:30;;;;;;;3.50;3.20;;;16.30;95.70;;;;;;5078946;28;20038;-69
2021/07/11 06:58:55;;;;;;;6.32;3.28;;;16.40;95.60;;;;;;5082342;28;20032;-69
2021/07/11 07:01:21;;;;;;;3.55;3.20;;;16.40;95.60;;;;;;5087423;28;20028;-69
2021/07/11 07:03:47;;;;;;;4.45;3.33;;;16.40;95.50;;;;;;5089677;28;20020;-69
2021/07/11 07:06:13;;;;;;;6.20;3.20;;;16.40;95.40;;;;;;5075848;28;20032;-69
2021/07/11 07:08:38;;;;;;;5.18;2.85;;;16.40;95.50;;;;;;5081611;28;20429;-69
2021/07/11 07:11:04;;;;;;;3.38;3.03;;;16.40;95.50;;;;;;5083111;28;20056;-69
2021/07/11 07:13:30;;;;;;;4.53;3.17;;;16.40;95.50;;;;;;5082362;28;20536;-69
2021/07/11 07:15:55;;;;;;;3.42;2.60;;;16.50;95.50;;;;;;5071133;28;20046;-69
2021/07/11 07:18:21;;;;;;;6.78;3.17;;;16.50;95.40;;;;;;5080430;28;20506;-69
2021/07/11 07:20:46;;;;;;;5.07;2.85;;;16.50;95.30;;;;;;5077493;28;20032;-69
2021/07/11 07:23:12;;;;;;;5.72;2.90;;;16.60;95.40;;;;;;5076418;28;20024;-69
2021/07/11 07:25:37;;;;;;;2.90;2.60;;;16.60;95.30;;;;;;5084307;28;20420;-69
2021/07/11 07:28:03;;;;;;;3.85;2.80;;;16.60;95.30;;;;;;5079772;28;20488;-68
2021/07/11 07:30:29;;;;;;;4.45;2.67;;;16.60;95.20;;;;;;5081637;28;20448;-69
2021/07/11 07:32:54;;;;;;;4.25;2.70;;;16.70;95.20;;;;;;5073190;28;20078;-69
2021/07/11 07:35:21;;;;;;;4.25;2.22;;;16.70;95.20;;;;;;5079073;28;20028;-69
2021/07/11 07:37:48;;;;;;;2.53;2.33;;;16.70;95.20;;;;;;5087494;28;20039;-69
2021/07/11 07:40:17;;;;;;;3.05;2.50;;;16.70;95.00;;;;;;5077367;28;20039;-69
2021/07/11 07:42:47;;;;;;;2.88;2.55;;;16.70;95.00;;;;;;5087120;28;20028;-69
2021/07/11 07:45:13;;;;;;;2.55;2.35;;;16.80;95.20;;;;;;5087794;28;20105;-69
2021/07/11 07:47:39;;;;;;;2.75;2.35;;;16.80;95.10;;;;;;5086902;28;20054;-69
2021/07/11 07:50:07;;;;;;;6.10;4.32;;;16.90;94.90;;;;;;5087669;28;20033;-69
2021/07/11 07:52:32;;;;;;;6.70;5.32;;;16.90;94.80;;;;;;5078732;28;20027;-69
2021/07/11 07:54:58;;;;;;;4.20;2.35;;;16.80;94.70;;;;;;5052121;28;20048;-68
2021/07/11 07:57:24;;;;;;;3.85;2.47;;;16.80;94.60;;;;;;5059657;28;20107;-68
2021/07/11 07:59:49;;;;;;;3.55;2.40;;;16.70;94.50;;;;;;5084253;28;20104;-71
2021/07/11 08:02:15;;;;;;;3.70;3.00;;;16.70;94.60;;;;;;5086605;28;20119;-69
2021/07/11 08:04:42;;;;;;;2.92;2.47;;;16.70;94.60;;;;;;5086155;28;20032;-69
2021/07/11 08:07:08;;;;;;;4.63;2.47;;;16.70;94.50;;;;;;5060014;28;20119;-69
2021/07/11 08:09:33;;;;;;;3.38;2.15;;;16.60;94.50;;;;;;5078188;28;20092;-70
2021/07/11 08:11:59;;;;;;;4.82;2.40;;;16.60;94.60;;;;;;5080928;28;20032;-70
2021/07/11 08:14:24;;;;;;;4.53;2.55;;;16.60;94.50;;;;;;5058913;28;20025;-69
2021/07/11 08:16:50;;;;;;;2.60;2.38;;;16.60;94.60;;;;;;5087422;28;20050;-69
2021/07/11 08:19:16;;;;;;;2.53;2.17;;;16.60;94.50;;;;;;5090324;28;20227;-69
2021/07/11 08:21:41;;;;;;;4.93;2.38;;;16.60;94.50;;;;;;5093632;28;20383;-72
2021/07/11 08:24:07;;;;;;;3.85;2.58;;;16.70;94.60;;;;;;5083718;28;20024;-69
2021/07/11 08:26:33;;;;;;;3.03;2.50;;;16.70;94.60;;;;;;5089833;28;20040;-69
2021/07/11 08:29:00;;;;;;;4.15;2.70;;;16.70;94.60;;;;;;5086650;28;20120;-69
2021/07/11 08:31:25;;;;;;;3.85;2.30;;;16.70;94.50;;;;;;5078393;28;20027;-70
2021/07/11 08:33:51;;;;;;;3.65;2.20;;;16.70;94.50;;;;;;5087157;28;20472;-70
2021/07/11 08:36:16;;;;;;;4.18;2.70;;;16.70;94.50;;;;;;5086370;28;20487;-70
2021/07/11 08:38:42;;;;;;;4.95;3.55;;;16.70;94.40;;;;;;5063089;28;20028;-70
2021/07/11 08:41:08;;;;;;;4.55;2.28;;;16.70;94.50;;;;;;5082090;28;20036;-69
2021/07/11 08:43:37;;;;;;;3.17;2.05;;;16.70;94.40;;;;;;5081857;28;20099;-70
2021/07/11 08:46:03;;;;;;;2.60;2.40;;;16.70;94.30;;;;;;5083868;28;20482;-70
2021/07/11 08:48:29;;;;;;;2.63;2.42;;;16.80;94.40;;;;;;5076645;28;20024;-70
2021/07/11 08:50:59;;;;;;;4.20;2.53;;;16.90;94.40;;;;;;5072663;28;20032;-69
2021/07/11 08:53:25;;;;;;;3.33;2.13;;;16.90;94.30;;;;;;5081781;28;20511;-70
2021/07/11 08:55:51;;;;;;;2.33;2.13;;;17.00;94.30;;;;;;5085477;28;20059;-70
2021/07/11 08:58:17;;;;;;;5.63;2.40;;;17.00;94.10;;;;;;5087722;28;20103;-71
2021/07/11 09:00:43;;;;;;;4.72;2.17;;;17.00;94.10;;;;;;5086961;28;20165;-70
2021/07/11 09:03:09;;;;;;;5.72;3.65;;;17.00;94.10;;;;;;5081254;28;20116;-69
2021/07/11 09:05:39;;;;;;;2.03;1.90;;;17.10;94.10;;;;;;5083047;28;20131;-69
2021/07/11 09:08:13;;;;;;;2.50;2.30;;;17.10;94.10;;;;;;5089400;28;20107;-69
2021/07/11 09:10:50;;;;;;;3.75;2.15;;;17.20;94.20;;;;;;5084767;28;20073;-69
2021/07/11 09:13:22;;;;;;;2.55;2.33;;;17.30;94.00;;;;;;5089924;28;20030;-69
2021/07/11 09:15:53;;;;;;;4.32;2.20;;;17.30;93.90;;;;;;5091614;28;20051;-69
2021/07/11 09:18:25;;;;;;;5.35;2.33;;;17.40;93.80;;;;;;5090240;28;20035;-69
2021/07/11 09:21:01;;;;;;;3.75;2.30;;;17.40;93.70;;;;;;5093222;28;20030;-69
2021/07/11 09:23:28;;;;;;;4.10;2.13;;;17.50;93.60;;;;;;5072777;28;20048;-69
2021/07/11 09:26:08;;;;;;;4.90;3.10;;;17.50;93.50;;;;;;5091884;28;20066;-69
2021/07/11 09:28:56;;;;;;;2.75;2.22;;;17.50;93.50;;;;;;5085633;28;20028;-69
2021/07/11 09:31:23;;;;;;;2.70;2.50;;;17.70;93.60;;;;;;5084579;28;20035;-69
2021/07/11 09:33:57;;;;;;;2.58;2.10;;;17.90;93.60;;;;;;5090228;28;20494;-69
2021/07/11 09:36:24;;;;;;;3.92;1.63;;;18.30;93.10;;;;;;5086505;28;20028;-69
2021/07/11 09:38:55;;;;;;;2.78;1.60;;;19.10;92.30;;;;;;5088731;28;20020;-69
2021/07/11 09:41:27;;;;;;;2.72;1.88;;;19.30;91.90;;;;;;5087582;28;20052;-69
2021/07/11 09:43:57;;;;;;;2.92;1.42;;;19.80;91.20;;;;;;5086685;28;20027;-70
2021/07/11 09:46:24;;;;;;;1.77;1.67;;;20.00;91.00;;;;;;5082183;28;20036;-69
2021/07/11 09:48:50;;;;;;;3.47;1.60;;;20.00;91.10;;;;;;5091477;28;20448;-69
2021/07/11 09:51:20;;;;;;;4.10;1.58;;;19.80;91.30;;;;;;5091513;28;20100;-69
2021/07/11 09:53:49;;;;;;;2.05;1.40;;;19.70;91.20;;;;;;5092069;28;20032;-70
2021/07/11 09:56:38;;;;;;;3.35;1.30;;;19.70;91.40;;;;;;5086916;28;20016;-69
2021/07/11 09:59:07;;;;;;;2.33;1.52;;;19.80;91.40;;;;;;5086857;28;20433;-69
2021/07/11 10:01:35;;;;;;;1.23;1.13;;;19.70;90.90;;;;;;5080037;28;20022;-69
2021/07/11 10:04:01;;;;;;;1.55;1.45;;;19.80;90.90;;;;;;5073959;28;20647;-69
2021/07/11 10:06:28;;;;;;;3.97;1.20;;;19.80;90.90;;;;;;5062895;28;20065;-69
2021/07/11 10:08:54;;;;;;;1.20;1.10;;;19.80;91.00;;;;;;5104542;28;20031;-70
2021/07/11 10:11:20;;;;;;;2.67;1.10;;;20.00;90.80;;;;;;5073794;28;20491;-69
2021/07/11 10:13:46;;;;;;;2.78;1.10;;;20.50;90.50;;;;;;5085725;28;20032;-69
2021/07/11 10:16:13;;;;;;;1.45;1.10;;;20.70;90.70;;;;;;5085196;28;20020;-70
2021/07/11 10:18:40;;;;;;;1.13;1.02;;;21.20;90.10;;;;;;5084887;28;20028;-70
2021/07/11 10:21:07;;;;;;;1.15;1.00;;;21.40;89.70;;;;;;5085681;28;20020;-69
2021/07/11 10:23:38;;;;;;;1.17;0.85;;;21.70;89.70;;;;;;5091668;28;20027;-69
2021/07/11 10:26:12;;;;;;;1.30;0.88;;;22.00;87.90;;;;;;5089151;28;20024;-70
2021/07/11 10:28:40;;;;;;;2.42;0.90;;;21.90;87.10;;;;;;5073503;28;20032;-70
2021/07/11 10:31:24;;;;;;;1.17;1.00;;;21.70;87.00;;;;;;5082184;28;20474;-70
2021/07/11 10:33:51;;;;;;;1.00;0.93;;;21.60;86.90;;;;;;5071212;28;20032;-70
2021/07/11 10:36:27;;;;;;;12.35;2.65;;;21.50;86.90;;;;;;5080182;28;20028;-69
2021/07/11 10:38:55;;;;;;;1.90;1.45;;;21.40;87.00;;;;;;5088996;28;20031;-69
2021/07/11 10:41:29;;;;;;;2.25;1.73;;;21.60;87.70;;;;;;5084958;28;20054;-70
2021/07/11 10:44:09;;;;;;;1.95;1.17;;;21.70;87.60;;;;;;5071978;28;20081;-70
2021/07/11 10:46:41;;;;;;;1.20;0.98;;;21.90;85.80;;;;;;5075913;28;20480;-72
2021/07/11 10:49:13;;;;;;;1.90;1.10;;;21.90;85.60;;;;;;5084247;28;20419;-70
2021/07/11 10:51:44;;;;;;;4.03;1.15;;;21.80;84.20;;;;;;5086465;28;20515;-71
2021/07/11 10:54:26;;;;;;;1.50;1.40;;;21.60;83.80;;;;;;5087569;28;20028;-70
2021/07/11 10:56:56;;;;;;;1.00;1.00;;;21.40;84.20;;;;;;5069837;28;20373;-71
2021/07/11 10:59:27;;;;;;;1.15;1.10;;;21.20;85.00;;;;;;5073161;28;20060;-70
2021/07/11 11:01:54;;;;;;;1.55;1.10;;;21.10;85.90;;;;;;5071424;28;20420;-71
2021/07/11 11:04:20;;;;;;;1.20;1.10;;;21.00;86.10;;;;;;5079174;28;20055;-70
2021/07/11 11:06:46;;;;;;;1.95;1.20;;;21.10;86.40;;;;;;5077674;28;20066;-71
2021/07/11 11:09:11;;;;;;;3.25;1.48;;;21.10;85.70;;;;;;5081028;28;20024;-70
2021/07/11 11:11:37;;;;;;;2.95;1.63;;;21.00;85.10;;;;;;5080223;28;20024;-70
2021/07/11 11:14:09;;;;;;;1.55;1.45;;;21.00;84.80;;;;;;5086131;28;20099;-71
2021/07/11 11:16:46;;;;;;;2.15;1.10;;;20.90;85.10;;;;;;5070522;28;20115;-70
2021/07/11 11:19:15;;;;;;;2.78;2.58;;;20.90;83.80;;;;;;5090291;28;20055;-70
2021/07/11 11:21:41;;;;;;;1.63;1.38;;;20.90;83.80;;;;;;5076192;28;20070;-70
2021/07/11 11:24:07;;;;;;;1.85;1.13;;;21.00;83.90;;;;;;5057240;28;20024;-70
2021/07/11 11:26:33;;;;;;;3.25;1.45;;;20.90;83.70;;;;;;5088714;28;20028;-71
2021/07/11 11:29:00;;;;;;;3.15;1.30;;;20.90;84.60;;;;;;5089764;28;20023;-71
2021/07/11 11:31:26;;;;;;;2.20;1.50;;;21.00;83.70;;;;;;5078566;28;20631;-70
2021/07/11 11:34:07;;;;;;;1.20;1.10;;;20.80;83.60;;;;;;5077823;28;20045;-71
2021/07/11 11:36:37;;;;;;;1.02;1.00;;;20.80;83.00;;;;;;5057476;28;20379;-71
2021/07/11 11:39:12;;;;;;;2.20;1.13;;;20.60;83.00;;;;;;5071856;28;20492;-70
2021/07/11 11:41:39;;;;;;;1.15;1.05;;;20.50;83.30;;;;;;5087375;28;20020;-70
2021/07/11 11:44:25;;;;;;;1.73;1.20;;;20.50;83.70;;;;;;5062847;28;20028;-70
2021/07/11 11:46:53;;;;;;;1.83;1.02;;;20.50;83.70;;;;;;5081215;28;20710;-71
2021/07/11 11:49:27;;;;;;;2.25;1.80;;;20.50;84.10;;;;;;5078240;28;20021;-71
2021/07/11 11:52:05;;;;;;;2.38;1.58;;;20.50;84.60;;;;;;5074698;28;20031;-71
2021/07/11 11:54:42;;;;;;;5.78;1.48;;;20.60;84.80;;;;;;5079646;28;20044;-71
2021/07/11 11:57:10;;;;;;;1.40;1.27;;;20.60;84.20;;;;;;5086155;28;20016;-71
2021/07/11 11:59:37;;;;;;;2.08;1.20;;;20.60;83.90;;;;;;5067167;28;20048;-71
2021/07/11 12:02:05;;;;;;;2.22;1.20;;;20.50;83.60;;;;;;5074613;28;20056;-70
2021/07/11 12:04:32;;;;;;;1.20;1.10;;;20.50;83.30;;;;;;5085294;28;20036;-70
2021/07/11 12:06:59;;;;;;;1.20;1.13;;;20.50;83.10;;;;;;5081797;28;20073;-71
2021/07/11 12:09:28;;;;;;;1.40;1.30;;;20.40;82.80;;;;;;5092149;28;20479;-71
2021/07/11 12:12:07;;;;;;;1.30;1.20;;;20.40;82.90;;;;;;5080354;28;20032;-72
2021/07/11 12:14:35;;;;;;;3.35;1.10;;;20.40;82.60;;;;;;5077387;28;20055;-70
2021/07/11 12:17:04;;;;;;;1.70;1.05;;;20.50;83.10;;;;;;5070920;28;20028;-68
2021/07/11 12:19:48;;;;;;;0.88;0.88;;;20.50;83.40;;;;;;5087970;28;20052;-68
2021/07/11 12:22:24;;;;;;;1.17;1.08;;;20.60;83.10;;;;;;5085554;28;20027;-68
2021/07/11 12:25:31;;;;;;;1.20;0.98;;;20.60;82.70;;;;;;5079811;28;20032;-68
2021/07/11 12:28:03;;;;;;;1.45;1.00;;;20.70;82.50;;;;;;5087369;28;20058;-68
2021/07/11 12:30:47;;;;;;;5.25;1.17;;;20.80;82.90;;;;;;5097167;22;20036;-72
2021/07/11 12:33:25;;;;;;;1.67;1.40;;;20.90;83.70;;;;;;5081445;28;20016;-70
2021/07/11 12:35:52;;;;;;;2.67;1.10;;;21.10;83.80;;;;;;5086268;28;20074;-71
2021/07/11 12:38:29;;;;;;;3.05;1.33;;;21.30;83.00;;;;;;5073727;28;20024;-71
2021/07/11 12:40:58;;;;;;;1.52;1.02;;;21.40;83.60;;;;;;5075335;28;20036;-70
2021/07/11 12:43:33;;;;;;;1.75;1.52;;;21.50;83.20;;;;;;5073814;28;20070;-67
2021/07/11 12:46:02;;;;;;;1.10;1.00;;;21.60;83.00;;;;;;5068719;28;20074;-70
2021/07/11 12:48:41;;;;;;;1.52;1.05;;;21.80;83.20;;;;;;5075214;28;20400;-70
2021/07/11 12:51:17;;;;;;;2.45;1.10;;;21.80;82.50;;;;;;5093496;28;20472;-70
2021/07/11 12:53:51;;;;;;;2.13;1.20;;;21.90;82.40;;;;;;5093559;28;20029;-69
2021/07/11 12:56:19;;;;;;;1.10;1.00;;;21.90;82.50;;;;;;5091177;28;20095;-69